Home > Products > Valid Products > MTR

000
SAUS45 KTFX 242257
MTRGFA
METAR KGFA 242256Z AUTO 30009G17KT 6SM -RA SCT048 BKN060 OVC100
11/03 A2970 RMK AO2 PK WND 25051/2235 WSHFT 2228 RAB38 SLP098 P0002
T01060028 TSNO $





000
SAUS45 KTFX 242256
MTR8S0
METAR K8S0 242245Z 24010KT





000
SAUS45 KTFX 242249
MTRGFA
SPECI KGFA 242248Z AUTO 30013G22KT 6SM -RA FEW034 BKN055 OVC100
10/03 A2970 RMK AO2 PK WND 25051/2235 WSHFT 2228 RAB38 P0001 TSNO $





000
SAUS45 KTFX 242227
MTR8S0
METAR K8S0 242215Z 24008KT





000
SAUS45 KTFX 242157
MTRGFA
METAR KGFA 242156Z AUTO 21019G28KT 10SM FEW060 BKN100 13/01 A2967
RMK AO2 PK WND 20031/2117 SLP084 T01330006 TSNO $





000
SAUS45 KTFX 242156
MTR8S0
METAR K8S0 242145Z 22012KT





000
SAUS45 KTFX 242126
MTR8S0
METAR K8S0 242115Z 23010KT





000
SAUS45 KTFX 242057
MTRGFA
METAR KGFA 242056Z AUTO 22018G29KT 10SM BKN055 BKN110 14/00 A2968
RMK AO2 PK WND 22029/2052 SLP085 T01390000 56015 TSNO $





000
SAUS45 KTFX 242055
MTR8S0
METAR K8S0 242045Z 24016G27KT





000
SAUS45 KTFX 242027
MTR8S0
METAR K8S0 242015Z 25013KT





000
SAUS45 KTFX 241957
MTRGFA
METAR KGFA 241956Z AUTO 21020G26KT 10SM CLR 13/M01 A2969 RMK AO2 PK
WND 21026/1955 SLP088 T01331006 TSNO $





000
SAUS45 KTFX 241956
MTR8S0
METAR K8S0 241945Z 28007KT





000
SAUS45 KTFX 241927
MTR8S0
METAR K8S0 241915Z 24010KT





000
SAUS45 KTFX 241857
MTRGFA
METAR KGFA 241856Z AUTO 22011KT 10SM FEW070 12/M01 A2971 RMK AO2
SLP097 T01171011 TSNO $





000
SAUS45 KTFX 241855
MTR8S0
METAR K8S0 241845Z 24007KT





000
SAUS45 KTFX 241826
MTR8S0
METAR K8S0 241815Z 24007KT





000
SAUS45 KTFX 241757
MTRGFA
METAR KGFA 241756Z AUTO 20011KT 10SM OVC060 11/M01 A2973 RMK AO2
SLP106 T01061011 10111 20039 56009 TSNO $





000
SAUS45 KTFX 241755
MTR8S0
METAR K8S0 241740Z 22008KT





000
SAUS45 KTFX 241727
MTR8S0
METAR K8S0 241715Z 21008KT





000
SAUS45 KTFX 241657
MTRGFA
METAR KGFA 241656Z AUTO 21013KT 10SM BKN070 BKN090 11/M02 A2973 RMK
AO2 SLP108 T01061022 TSNO $





000
SAUS45 KTFX 241655
MTR8S0
METAR K8S0 241645Z 19006KT





000
SAUS45 KTFX 241627
MTR8S0
METAR K8S0 241615Z 19007KT





000
SAUS45 KTFX 241557
MTRGFA
METAR KGFA 241556Z AUTO 19011KT 10SM BKN070 OVC085 09/M02 A2975 RMK
AO2 SLP111 T00941017 TSNO $





000
SAUS45 KTFX 241555
MTR8S0
METAR K8S0 241545Z 20007KT





000
SAUS45 KTFX 241527
MTR8S0
METAR K8S0 241515Z 20006KT





000
SAUS45 KTFX 241457
MTRGFA
METAR KGFA 241456Z AUTO 22013KT 10SM FEW080 09/M02 A2976 RMK AO2
SLP114 T00941017 58003 TSNO $





000
SAUS45 KTFX 241455
MTR8S0
METAR K8S0 241445Z 21010KT





000
SAUS45 KTFX 241427
MTR8S0
METAR K8S0 241415Z 22008KT





000
SAUS45 KTFX 241357
MTRGFA
METAR KGFA 241356Z AUTO 21009KT 10SM FEW049 SCT055 OVC070 07/M01
A2977 RMK AO2 SLP120 T00671011 TSNO $





000
SAUS45 KTFX 241355
MTR8S0
METAR K8S0 241345Z 22010KT





000
SAUS45 KTFX 241257
MTRGFA
METAR KGFA 241256Z AUTO 21015KT 10SM OVC100 06/M02 A2977 RMK AO2
SLP119 T00561017 TSNO $





000
SAUS45 KTFX 241255
MTR8S0
METAR K8S0 241245Z 22008KT





000
SAUS45 KTFX 241157
MTRGFA
METAR KGFA 241156Z AUTO 22010KT 10SM BKN100 04/M02 A2977 RMK AO2
SLP123 T00391022 10039 20017 50005 TSNO $





000
SAUS45 KTFX 241156
MTR8S0
METAR K8S0 241145Z 24009KT





000
SAUS45 KTFX 241127
MTR8S0
METAR K8S0 241115Z 23011KT





000
SAUS45 KTFX 241057
MTRGFA
METAR KGFA 241056Z AUTO 21011KT 10SM CLR 03/M02 A2977 RMK AO2 SLP123
T00281022 TSNO $





000
SAUS45 KTFX 241056
MTR8S0
METAR K8S0 241045Z 22006KT





000
SAUS45 KTFX 241027
MTR8S0
METAR K8S0 241015Z 24006KT





000
SAUS45 KTFX 240957
MTRGFA
METAR KGFA 240956Z AUTO 21013KT 10SM CLR 03/M02 A2976 RMK AO2 SLP117
T00281022 TSNO $





000
SAUS45 KTFX 240955
MTR8S0
METAR K8S0 240945Z 24009KT





000
SAUS45 KTFX 240926
MTR8S0
METAR K8S0 240915Z 25014KT





000
SAUS45 KTFX 240857
MTRGFA
METAR KGFA 240856Z AUTO 21015KT 10SM CLR 03/M02 A2975 RMK AO2 SLP114
T00281022 53007 TSNO $





000
SAUS45 KTFX 240855
MTR8S0
METAR K8S0 240845Z 23014KT





000
SAUS45 KTFX 240826
MTR8S0
METAR K8S0 240815Z 23012KT





000
SAUS45 KTFX 240757
MTRGFA
METAR KGFA 240756Z AUTO 21019G25KT 10SM CLR 04/M02 A2974 RMK AO2
SLP108 T00391022 TSNO $





000
SAUS45 KTFX 240756
MTR8S0
METAR K8S0 240745Z 24012G25KT





000
SAUS45 KTFX 240727
MTR8S0
METAR K8S0 240715Z 24012KT





000
SAUS45 KTFX 240657
MTRGFA
METAR KGFA 240656Z AUTO 21015KT 10SM CLR 03/M02 A2973 RMK AO2 SLP108
T00331022 TSNO $





000
SAUS45 KTFX 240655
MTR8S0
METAR K8S0 240645Z 27005KT





000
SAUS45 KTFX 240627
MTR8S0
METAR K8S0 240615Z 28012KT





000
SAUS45 KTFX 240557
MTRGFA
METAR KGFA 240556Z AUTO 21016KT 10SM CLR 04/M03 A2973 RMK AO2 SLP108
60000 T00391028 10100 20033 401220028 51002 TSNO $





000
SAUS45 KTFX 240555
MTR8S0
METAR K8S0 240545Z 25009G25KT





000
SAUS45 KTFX 240527
MTR8S0
METAR K8S0 240515Z 25015G25KT





000
SAUS45 KTFX 240457
MTRGFA
METAR KGFA 240456Z AUTO 20016KT 10SM CLR 04/M03 A2973 RMK AO2 SLP108
T00391033 TSNO $





000
SAUS45 KTFX 240456
MTR8S0
METAR K8S0 240445Z 24010KT





000
SAUS45 KTFX 240357
MTRGFA
METAR KGFA 240356Z AUTO 22016KT 10SM CLR 06/M03 A2973 RMK AO2 SLP110
T00561033 TSNO $





000
SAUS45 KTFX 240355
MTR8S0
METAR K8S0 240345Z 24011KT





000
SAUS45 KTFX 240326
MTR8S0
METAR K8S0 240315Z 24012KT





000
SAUS45 KTFX 240258
MTRGFA
METAR KGFA 240256Z AUTO 22015G21KT 10SM CLR 06/M04 A2972 RMK AO2
SLP107 60000 T00611039 53014 TSNO $





000
SAUS45 KTFX 240255
MTR8S0
METAR K8S0 240245Z 24009KT





000
SAUS45 KTFX 240227
MTR8S0
METAR K8S0 240215Z 25009KT





000
SAUS45 KTFX 240157
MTRGFA
METAR KGFA 240156Z AUTO 23017G25KT 10SM CLR 08/M04 A2971 RMK AO2 PK
WND 22031/0059 SLP102 T00781044 TSNO $





000
SAUS45 KTFX 240156
MTR8S0
METAR K8S0 240145Z 26011KT





000
SAUS45 KTFX 240127
MTR8S0
METAR K8S0 240115Z 25009KT





000
SAUS45 KTFX 240057
MTRGFA
METAR KGFA 240056Z AUTO 23022G33KT 10SM FEW070 09/M05 A2969 RMK AO2
PK WND 21033/0053 RAB38E47 SLP095 P0000 T00891050 TSNO $





000
SAUS45 KTFX 240056
MTR8S0
METAR K8S0 240045Z 27015G29KT





000
SAUS45 KTFX 240027
MTR8S0
METAR K8S0 240015Z 26009KT





000
SAUS45 KTFX 232357
MTRGFA
METAR KGFA 232356Z AUTO 24016G27KT 10SM CLR 08/M05 A2968 RMK AO2 PK
WND 22033/2319 SLP092 T00831050 10122 20083 53012 TSNO $





000
SAUS45 KTFX 232356
MTR8S0
METAR K8S0 232345Z 25016G33KT





000
SAUS45 KTFX 232327
MTR8S0
METAR K8S0 232315Z 24017G33KT





000
SAUS45 KTFX 232257
MTRGFA
METAR KGFA 232256Z AUTO 23020G31KT 10SM SCT095 11/M07 A2965 RMK AO2
PK WND 23033/2210 SLP077 T01061067 TSNO $





000
SAUS45 KTFX 232255
MTR8S0
METAR K8S0 232245Z 24017G37KT





000
SAUS45 KTFX 232227
MTR8S0
METAR K8S0 232215Z 25014G33KT





000
SAUS45 KTFX 232157
MTRGFA
METAR KGFA 232156Z AUTO 24022G31KT 10SM SCT080 BKN100 11/M08 A2964
RMK AO2 PK WND 21032/2102 SLP073 T01111078 TSNO $





000
SAUS45 KTFX 232155
MTR8S0
METAR K8S0 232145Z 22017G33KT





000
SAUS45 KTFX 232127
MTR8S0
METAR K8S0 232115Z 23017G27KT





000
SAUS45 KTFX 232057
MTRGFA
METAR KGFA 232056Z AUTO 23019G32KT 10SM SCT075 12/M07 A2964 RMK AO2
PK WND 22034/2000 SLP071 T01171067 51000 TSNO $





000
SAUS45 KTFX 232056
MTR8S0
METAR K8S0 232045Z 23018G36KT





000
SAUS45 KTFX 232027
MTR8S0
METAR K8S0 232015Z 23020G33KT





000
SAUS45 KTFX 231957
MTRGFA
METAR KGFA 231956Z AUTO 22022G38KT 10SM SCT075 11/M06 A2964 RMK AO2
PK WND 21038/1949 SLP071 T01111061 TSNO $





000
SAUS45 KTFX 231955
MTR8S0
METAR K8S0 231945Z 23020G03KT





000
SAUS45 KTFX 231927
MTR8S0
METAR K8S0 231915Z 24017G32KT





000
SAUS45 KTFX 231857
MTRGFA
METAR KGFA 231856Z AUTO 22022G30KT 10SM SCT070 11/M07 A2964 RMK AO2
PK WND 23034/1807 SLP071 T01061067 TSNO $





000
SAUS45 KTFX 231855
MTR8S0
METAR K8S0 231845Z 25023G39KT





000
SAUS45 KTFX 231826
MTR8S0
METAR K8S0 231815Z 24023G39KT





000
SAUS45 KTFX 231757
MTRGFA
METAR KGFA 231756Z AUTO 25027G34KT 10SM CLR 09/M08 A2964 RMK AO2 PK
WND 25039/1726 SLP072 T00891078 10089 20028 53005 TSNO $





000
SAUS45 KTFX 231755
MTR8S0
METAR K8S0 231745Z 26016G31KT





000
SAUS45 KTFX 231727
MTR8S0
METAR K8S0 231715Z 27013G28KT





000
SAUS45 KTFX 231657
MTRGFA
METAR KGFA 231656Z AUTO 24023G32KT 10SM CLR 08/M08 A2963 RMK AO2 PK
WND 23037/1606 SLP070 T00831078 TSNO $





000
SAUS45 KTFX 231655
MTR8S0
METAR K8S0 231645Z 27014G29KT





000
SAUS45 KTFX 231626
MTR8S0
METAR K8S0 231615Z 25014G29KT





000
SAUS45 KTFX 231557
MTRGFA
METAR KGFA 231556Z AUTO 24018G31KT 10SM CLR 07/M08 A2962 RMK AO2 PK
WND 22032/1539 SLP069 T00721078 TSNO $





000
SAUS45 KTFX 231556
MTR8S0
METAR K8S0 231545Z 24017G27KT





000
SAUS45 KTFX 231527
MTR8S0
METAR K8S0 231515Z 25013G25KT





000
SAUS45 KTFX 231457
MTRGFA
METAR KGFA 231456Z AUTO 22018G26KT 10SM CLR 06/M06 A2962 RMK AO2 PK
WND 22031/1436 SLP069 T00561056 50010 TSNO $





000
SAUS45 KTFX 231456
MTR8S0
METAR K8S0 231445Z 24015G28KT





000
SAUS45 KTFX 231426
MTR8S0
METAR K8S0 231415Z 24015G28KT





000
SAUS45 KTFX 231357
MTRGFA
METAR KGFA 231356Z AUTO 21014KT 10SM CLR 03/M04 A2963 RMK AO2 SLP073
T00331039 TSNO $





000
SAUS45 KTFX 231355
MTR8S0
METAR K8S0 231345Z 24016G30KT





000
SAUS45 KTFX 231257
MTRGFA
METAR KGFA 231256Z AUTO 21014KT 10SM BKN120 04/M02 A2960 RMK AO2
SLP065 T00391022 TSNO $





000
SAUS45 KTFX 231255
MTR8S0
METAR K8S0 231245Z 24019G35KT





000
SAUS45 KTFX 231227
MTR8S0
METAR K8S0 231215Z 24018G28KT





000
SAUS45 KTFX 231157
MTRGFA
METAR KGFA 231156Z AUTO 21012KT 10SM OVC110 04/M02 A2959 RMK AO2
SLP057 60014 70084 T00391017 10067 20039 53011 TSNO $





000
SAUS45 KTFX 231155
MTR8S0
METAR K8S0 231145Z 24016G33KT





000
SAUS45 KTFX 231126
MTR8S0
METAR K8S0 231115Z 25018G33KT





000
SAUS45 KTFX 231057
MTRGFA
METAR KGFA 231056Z AUTO 21014KT 10SM SCT055 BKN080 OVC090 04/M01
A2957 RMK AO2 SLP042 T00441011 TSNO $





000
SAUS45 KTFX 231055
MTR8S0
METAR K8S0 231045Z 25015G31KT





000
SAUS45 KTFX 231026
MTR8S0
METAR K8S0 231015Z 24016G31KT





000
SAUS45 KTFX 230957
MTRGFA
METAR KGFA 230956Z AUTO 21017G22KT 10SM BKN060 OVC090 05/01 A2956
RMK AO2 SLP040 T00500006 TSNO $





000
SAUS45 KTFX 230956
MTR8S0
METAR K8S0 230945Z 25017G35KT





000
SAUS45 KTFX 230926
MTR8S0
METAR K8S0 230915Z 26016G31KT





000
SAUS45 KTFX 230857
MTRGFA
METAR KGFA 230856Z AUTO 21017KT 10SM OVC070 05/02 A2955 RMK AO2
RAE06 SLP026 P0000 60014 T00500022 53004 TSNO $





000
SAUS45 KTFX 230856
MTR8S0
METAR K8S0 230845Z 25018G28KT





000
SAUS45 KTFX 230827
MTR8S0
METAR K8S0 230815Z 25013G27KT





000
SAUS45 KTFX 230757
MTRGFA
METAR KGFA 230756Z AUTO 23006KT 10SM -RA FEW012 SCT025 OVC040 06/03
A2954 RMK AO2 SLP022 P0010 T00560033 TSNO $





000
SAUS45 KTFX 230756
MTR8S0
METAR K8S0 230745Z 25014KT





000
SAUS45 KTFX 230727
MTR8S0
METAR K8S0 230715Z 22011KT





000
SAUS45 KTFX 230720
MTRGFA
SPECI KGFA 230718Z AUTO 27006KT 6SM -RA BR FEW007 BKN021 OVC031
07/04 A2954 RMK AO2 P0004 TSNO $





000
SAUS45 KTFX 230710
MTRGFA
SPECI KGFA 230709Z AUTO 28006KT 3SM RA BR SCT007 BKN013 OVC033 07/05
A2954 RMK AO2 P0003 TSNO $





000
SAUS45 KTFX 230700
MTRGFA
SPECI KGFA 230659Z AUTO 20005KT 5SM -RA BR FEW009 BKN024 OVC039
06/05 A2954 RMK AO2 P0000 TSNO $





000
SAUS45 KTFX 230657
MTRGFA
METAR KGFA 230656Z AUTO 20006KT 6SM -RA BR FEW013 BKN030 OVC039
07/05 A2955 RMK AO2 SLP023 P0004 T00670050 TSNO $





000
SAUS45 KTFX 230655
MTR8S0
METAR K8S0 230645Z 24010KT





000
SAUS45 KTFX 230626
MTR8S0
METAR K8S0 230615Z 24011KT





000
SAUS45 KTFX 230557
MTRGFA
METAR KGFA 230556Z AUTO 00000KT 10SM -RA FEW035 BKN050 OVC070 07/04
A2954 RMK AO2 SLP021 P0000 60058 T00670044 10100 20067 402170050
53001 TSNO $





000
SAUS45 KTFX 230555
MTR8S0
METAR K8S0 230545Z 25012G25KT





000
SAUS45 KTFX 230526
MTR8S0
METAR K8S0 230515Z 24010KT





000
SAUS45 KTFX 230458
MTRGFA
METAR KGFA 230456Z AUTO 29008KT 10SM -RA OVC038 07/04 A2952 RMK AO2
SLP019 P0006 T00670044 TSNO $





000
SAUS45 KTFX 230455
MTR8S0
METAR K8S0 230445Z 25010KT





000
SAUS45 KTFX 230436
MTRGFA
SPECI KGFA 230434Z AUTO 28008KT 8SM -RA FEW026 OVC036 07/05 A2951
RMK AO2 P0004 TSNO $





000
SAUS45 KTFX 230426
MTR8S0
METAR K8S0 230415Z 25011KT





000
SAUS45 KTFX 230422
MTRGFA
SPECI KGFA 230420Z AUTO 28009KT 6SM -RA BR FEW012 BKN024 OVC032
07/05 A2952 RMK AO2 P0003 TSNO $





000
SAUS45 KTFX 230357
MTRGFA
METAR KGFA 230356Z AUTO 27007KT 10SM -RA BKN014 OVC023 07/05 A2953
RMK AO2 SLP026 P0010 T00720050 TSNO $





000
SAUS45 KTFX 230356
MTR8S0
METAR K8S0 230345Z 25011KT





000
SAUS45 KTFX 230353
MTRGFA
SPECI KGFA 230352Z AUTO 28006KT 10SM -RA BKN014 BKN020 OVC030 07/05
A2953 RMK AO2 P0010 TSNO $





000
SAUS45 KTFX 230346
MTRGFA
SPECI KGFA 230345Z AUTO 27005KT 10SM -RA SCT012 BKN018 OVC034 08/06
A2954 RMK AO2 P0010 TSNO $





000
SAUS45 KTFX 230327
MTR8S0
METAR K8S0 230315Z 25008KT





000
SAUS45 KTFX 230323
MTRGFA
SPECI KGFA 230321Z AUTO 30007KT 4SM RA BR FEW010 SCT015 OVC032 08/06
A2951 RMK AO2 P0008 TSNO $





000
SAUS45 KTFX 230310
MTRGFA
SPECI KGFA 230309Z AUTO 30008KT 3SM RA BR FEW009 BKN014 OVC032 08/06
A2950 RMK AO2 P0005 TSNO $





000
SAUS45 KTFX 230257
MTRGFA
METAR KGFA 230256Z AUTO 28008KT 3SM +RA BR OVC012 08/06 A2951 RMK
AO2 SLP022 P0015 60042 T00830061 53006 TSNO $





000
SAUS45 KTFX 230256
MTR8S0
METAR K8S0 230245Z 27008KT





000
SAUS45 KTFX 230236
MTRGFA
SPECI KGFA 230235Z AUTO 23006KT 4SM RA BR BKN012 OVC048 08/07 A2951
RMK AO2 P0006 TSNO $





000
SAUS45 KTFX 230227
MTR8S0
METAR K8S0 230215Z 22003KT





000
SAUS45 KTFX 230157
MTRGFA
METAR KGFA 230156Z AUTO 24008KT 7SM -RA FEW012 SCT033 OVC055 08/07
A2948 RMK AO2 SLP017 P0013 T00830067 TSNO $





000
SAUS45 KTFX 230155
MTR8S0
METAR K8S0 230145Z 35002KT





000
SAUS45 KTFX 230129
MTRGFA
SPECI KGFA 230128Z AUTO 25010KT 4SM -RA BR OVC050 09/07 A2948 RMK
AO2 P0011 TSNO $





000
SAUS45 KTFX 230126
MTR8S0
METAR K8S0 230115Z 00000KT





000
SAUS45 KTFX 230118
MTRGFA
SPECI KGFA 230117Z AUTO 25010KT 2 1/2SM RA BR OVC050 09/07 A2949 RMK
AO2 P0008 TSNO $





000
SAUS45 KTFX 230057
MTRGFA
METAR KGFA 230056Z AUTO 25015KT 5SM RA OVC060 09/07 A2949 RMK AO2 PK
WND 24031/0002 SLP019 P0014 T00940067 TSNO $





000
SAUS45 KTFX 230055
MTR8S0
METAR K8S0 230045Z 24003KT





000
SAUS45 KTFX 230027
MTR8S0
METAR K8S0 230015Z 27005KT





000
SAUS45 KTFX 230022
MTRGFA
SPECI KGFA 230021Z AUTO 24020G29KT 4SM RA OVC055 09/06 A2948 RMK AO2
PK WND 24031/0002 P0009 TSNO $





000
SAUS45 KTFX 230014
MTRGFA
SPECI KGFA 230013Z AUTO 25022G30KT 2 1/2SM RA OVC050 09/06 A2948 RMK
AO2 PK WND 24031/0002 P0007 TSNO $





000
SAUS45 KTFX 230007
MTRGFA
SPECI KGFA 230006Z AUTO 25025G31KT 3SM +RA OVC050 10/07 A2948 RMK
AO2 PK WND 24031/0002 P0005 TSNO $





000
SAUS45 KTFX 222357
MTRGFA
METAR KGFA 222356Z AUTO 24022G33KT 2 1/2SM RA OVC050 10/06 A2949 RMK
AO2 PK WND 24033/2352 RAB2259 SLP020 P0008 60012 T01000061 10217
20100 50023 TSNO $





000
SAUS45 KTFX 222355
MTR8S0
METAR K8S0 222345Z 26009KT





000
SAUS45 KTFX 222352
MTRGFA
SPECI KGFA 222351Z AUTO 23021G30KT 2 1/2SM RA BKN048 OVC060 11/06
A2950 RMK AO2 PK WND 22032/2339 RAB2259 P0007 TSNO $





000
SAUS45 KTFX 222326
MTR8S0
METAR K8S0 222315Z 25012KT





000
SAUS45 KTFX 222257
MTRGFA
METAR KGFA 222256Z AUTO 24011KT 10SM FEW055 SCT070 OVC090 15/07
A2942 RMK AO2 WSHFT 2146 RAB01E53 SLP987 P0004 T01500067 TSNO $





000
SAUS45 KTFX 222256
MTR8S0
METAR K8S0 222245Z 26013G28KT





000
SAUS45 KTFX 222227
MTR8S0
METAR K8S0 222215Z 23015KT





000
SAUS45 KTFX 222208
MTRGFA
SPECI KGFA 222206Z AUTO 30015G20KT 6SM RA SCT070 OVC090 14/07 A2940
RMK AO2 WSHFT 2146 RAB01 P0002 TSNO $





000
SAUS45 KTFX 222157
MTRGFA
METAR KGFA 222156Z AUTO 24012KT 10SM OVC090 16/04 A2941 RMK AO2
RAB41E56 SLP982 P0000 T01610039 TSNO $





000
SAUS45 KTFX 222156
MTR8S0
METAR K8S0 222145Z 25015G27KT





000
SAUS45 KTFX 222057
MTRGFA
METAR KGFA 222056Z AUTO 07009KT 10SM BKN100 21/00 A2941 RMK AO2
SLP977 T02110000 58044 TSNO $





000
SAUS45 KTFX 222055
MTR8S0
METAR K8S0 222040Z 26012KT





000
SAUS45 KTFX 222026
MTR8S0
METAR K8S0 222015Z 27013KT





000
SAUS45 KTFX 221957
MTRGFA
METAR KGFA 221956Z AUTO 06004KT 10SM SCT110 21/M01 A2947 RMK AO2
SLP997 T02111006 TSNO $





000
SAUS45 KTFX 221956
MTR8S0
METAR K8S0 221945Z 27012KT





000
SAUS45 KTFX 221926
MTR8S0
METAR K8S0 221915Z 21006KT





000
SAUS45 KTFX 221857
MTRGFA
METAR KGFA 221856Z AUTO 13006KT 10SM CLR 21/00 A2952 RMK AO2 SLP011
T02060000 TSNO $





000
SAUS45 KTFX 221855
MTR8S0
METAR K8S0 221845Z 13008KT





000
SAUS45 KTFX 221826
MTR8S0
METAR K8S0 221815Z 09006KT





000
SAUS45 KTFX 221758
MTRGFA
METAR KGFA 221756Z AUTO 13003KT 10SM CLR 19/01 A2956 RMK AO2 SLP026
T01940006 10194 20050 58028 TSNO $





000
SAUS45 KTFX 221755
MTR8S0
METAR K8S0 221745Z 12008KT





000
SAUS45 KTFX 221726
MTR8S0
METAR K8S0 221715Z 10003KT





000
SAUS45 KTFX 221657
MTRGFA
METAR KGFA 221656Z AUTO 00000KT 10SM CLR 17/M01 A2959 RMK AO2 SLP040
T01721011 TSNO $





000
SAUS45 KTFX 221656
MTR8S0
METAR K8S0 221645Z 08002KT





000
SAUS45 KTFX 221626
MTR8S0
METAR K8S0 221615Z 11004KT





000
SAUS45 KTFX 221557
MTRGFA
METAR KGFA 221556Z AUTO 00000KT 10SM CLR 14/M02 A2962 RMK AO2 SLP053
T01441017 TSNO $





000
SAUS45 KTFX 221555
MTR8S0
METAR K8S0 221545Z 15002KT





000
SAUS45 KTFX 221526
MTR8S0
METAR K8S0 221515Z 00000KT





000
SAUS45 KTFX 221457
MTRGFA
METAR KGFA 221456Z AUTO 00000KT 10SM CLR 12/M01 A2965 RMK AO2 SLP068
T01171011 58014 TSNO $





000
SAUS45 KTFX 221455
MTR8S0
METAR K8S0 221445Z 00000KT





000
SAUS45 KTFX 221427
MTR8S0
METAR K8S0 221415Z 00000KT





000
SAUS45 KTFX 221357
MTRGFA
METAR KGFA 221356Z AUTO 00000KT 10SM CLR 08/M01 A2967 RMK AO2 SLP072
T00831011 TSNO $





000
SAUS45 KTFX 221356
MTRLWT
METAR KLWT 221354Z AUTO 13004KT 10SM CLR 10/M02 A2974 RMK AO2 SLP054
T01001022 TSNO





000
SAUS45 KTFX 221355
MTR8S0
METAR K8S0 221345Z 28003KT





000
SAUS45 KTFX 221327
MTR8S0
METAR K8S0 221315Z 00000KT





000
SAUS45 KTFX 221257
MTRGFA
METAR KGFA 221256Z AUTO 32003KT 10SM CLR 07/M03 A2969 RMK AO2 SLP078
T00721028 TSNO $





000
SAUS45 KTFX 221256
MTR8S0
METAR K8S0 221245Z 27004KT





000
SAUS45 KTFX 221255
MTRLWT
METAR KLWT 221254Z AUTO 13006KT 10SM CLR 06/M02 A2975 RMK AO2 SLP061
T00611022 TSNO





000
SAUS45 KTFX 221226
MTR8S0
METAR K8S0 221215Z 25003KT





000
SAUS45 KTFX 221157
MTRGFA
METAR KGFA 221156Z AUTO 14003KT 10SM BKN110 06/M03 A2970 RMK AO2
SLP078 T00561028 10094 20056 57021 TSNO $





000
SAUS45 KTFX 221156
MTR8S0
METAR K8S0 221145Z 26005KT





000
SAUS45 KTFX 221155
MTRLWT
METAR KLWT 221154Z AUTO 17006KT 10SM SCT120 07/M03 A2978 RMK AO2
SLP066 T00721028 10117 20056 56025 TSNO





000
SAUS45 KTFX 221127
MTR8S0
METAR K8S0 221115Z 00000KT





000
SAUS45 KTFX 221057
MTRGFA
METAR KGFA 221056Z AUTO 16005KT 10SM CLR 08/M03 A2972 RMK AO2 SLP083
T00831033 TSNO $





000
SAUS45 KTFX 221056
MTR8S0
METAR K8S0 221045Z 26004KT





000
SAUS45 KTFX 221055
MTRLWT
METAR KLWT 221054Z AUTO 09006KT 10SM CLR 09/M04 A2980 RMK AO2 SLP071
T00941044 TSNO





000
SAUS45 KTFX 221026
MTR8S0
METAR K8S0 221015Z 29005KT





000
SAUS45 KTFX 220957
MTRGFA
METAR KGFA 220956Z AUTO 17008KT 10SM CLR 08/M03 A2974 RMK AO2 SLP090
T00781028 TSNO $





000
SAUS45 KTFX 220955
MTRLWT
METAR KLWT 220954Z AUTO 08010KT 10SM CLR 11/M05 A2982 RMK AO2 SLP076
T01111050 TSNO





000
SAUS45 KTFX 220955
MTR8S0
METAR K8S0 220945Z 29004KT





000
SAUS45 KTFX 220926
MTR8S0
METAR K8S0 220915Z 25006KT





000
SAUS45 KTFX 220857
MTRGFA
METAR KGFA 220856Z AUTO 14008KT 10SM CLR 06/M03 A2977 RMK AO2 SLP102
T00611028 58016 TSNO $





000
SAUS45 KTFX 220855
MTR8S0
METAR K8S0 220845Z 30004KT





000
SAUS45 KTFX 220855
MTRLWT
METAR KLWT 220854Z AUTO 09010KT 10SM CLR 11/M05 A2986 RMK AO2 SLP090
T01111050 58020 TSNO





000
SAUS45 KTFX 220826
MTR8S0
METAR K8S0 220815Z 35003KT





000
SAUS45 KTFX 220757
MTRGFA
METAR KGFA 220756Z AUTO 14007KT 10SM CLR 06/M03 A2979 RMK AO2 SLP112
T00611033 TSNO $





000
SAUS45 KTFX 220755
MTRLWT
METAR KLWT 220754Z AUTO 10012KT 10SM CLR 11/M06 A2989 RMK AO2 SLP102
T01111056 TSNO





000
SAUS45 KTFX 220755
MTR8S0
METAR K8S0 220745Z 26005KT





000
SAUS45 KTFX 220657
MTRGFA
METAR KGFA 220656Z AUTO 14009KT 10SM CLR 08/M03 A2981 RMK AO2 SLP116
T00831033 TSNO $





000
SAUS45 KTFX 220655
MTR8S0
METAR K8S0 220645Z 24004KT





000
SAUS45 KTFX 220655
MTRLWT
METAR KLWT 220654Z AUTO 09012KT 10SM CLR 11/M06 A2991 RMK AO2 SLP109
T01111056 401891033 TSNO





000
SAUS45 KTFX 220626
MTR8S0
METAR K8S0 220615Z 28005KT





000
SAUS45 KTFX 220557
MTRGFA
METAR KGFA 220556Z AUTO 14008KT 10SM BKN120 09/M04 A2982 RMK AO2
SLP118 T00941039 10194 20089 402061017 58018 TSNO $





000
SAUS45 KTFX 220555
MTRLWT
METAR KLWT 220554Z AUTO 10012KT 10SM CLR 10/M06 A2993 RMK AO2 SLP120
T01001056 10183 20089 58014 TSNO





000
SAUS45 KTFX 220527
MTR8S0
METAR K8S0 220515Z 27006KT





000
SAUS45 KTFX 220458
MTRGFA
METAR KGFA 220456Z AUTO 13009KT 10SM CLR 09/M03 A2984 RMK AO2 SLP133
T00891028 TSNO $





000
SAUS45 KTFX 220455
MTRLWT
METAR KLWT 220454Z AUTO 11010KT 10SM CLR 09/M05 A2995 RMK AO2 SLP132
T00941050 TSNO





000
SAUS45 KTFX 220427
MTR8S0
METAR K8S0 220410Z 22003KT





000
SAUS45 KTFX 220358
MTRGFA
METAR KGFA 220356Z AUTO 12008KT 10SM BKN120 10/M04 A2986 RMK AO2
SLP141 T01001039 TSNO $





000
SAUS45 KTFX 220355
MTRLWT
METAR KLWT 220354Z AUTO 11010KT 10SM CLR 10/M06 A2997 RMK AO2 SLP140
T01001056 TSNO





000
SAUS45 KTFX 220355
MTR8S0
METAR K8S0 220345Z 26003KT





000
SAUS45 KTFX 220326
MTR8S0
METAR K8S0 220315Z 24002KT





000
SAUS45 KTFX 220258
MTRGFA
METAR KGFA 220256Z AUTO 11003KT 10SM CLR 11/M03 A2988 RMK AO2 SLP149
T01061028 56022 TSNO $





000
SAUS45 KTFX 220256
MTR8S0
METAR K8S0 220245Z 27002KT





000
SAUS45 KTFX 220255
MTRLWT
METAR KLWT 220254Z AUTO 11008KT 10SM CLR 11/M04 A2997 RMK AO2 SLP145
T01061044 58015 TSNO





000
SAUS45 KTFX 220227
MTR8S0
METAR K8S0 220215Z 00000KT





000
SAUS45 KTFX 220157
MTRGFA
METAR KGFA 220156Z AUTO 04006KT 10SM CLR 16/M03 A2989 RMK AO2 SLP153
T01611028 TSNO $





000
SAUS45 KTFX 220155
MTR8S0
METAR K8S0 220145Z 29002KT





000
SAUS45 KTFX 220155
MTRLWT
METAR KLWT 220154Z AUTO 10009KT 10SM CLR 14/M04 A2999 RMK AO2 SLP154
T01391044 TSNO





000
SAUS45 KTFX 220127
MTR8S0
METAR K8S0 220115Z 28003KT





000
SAUS45 KTFX 220057
MTRGFA
METAR KGFA 220056Z AUTO 06011KT 10SM CLR 18/M03 A2992 RMK AO2 SLP169
T01781033 TSNO $





000
SAUS45 KTFX 220055
MTRLWT
METAR KLWT 220054Z AUTO 09012KT 10SM CLR 17/M08 A3001 RMK AO2 SLP163
T01721078 TSNO





000
SAUS45 KTFX 220027
MTR8S0
METAR K8S0 220015Z 29002KT





000
SAUS45 KTFX 212357
MTRGFA
METAR KGFA 212356Z AUTO 10006KT 10SM CLR 19/M07 A2995 RMK AO2 SLP177
T01941067 10206 20161 56023 TSNO $





000
SAUS45 KTFX 212355
MTR8S0
METAR K8S0 212345Z 19004KT





000
SAUS45 KTFX 212355
MTRLWT
METAR KLWT 212354Z AUTO 08006KT 10SM CLR 18/M09 A3002 RMK AO2 SLP167
T01781094 10189 20139 56021 TSNO





000
SAUS45 KTFX 212327
MTR8S0
METAR K8S0 212315Z 14002KT





    US Dept of Commerce
    National Oceanic and Atmospheric Administration
    National Weather Service
    1325 East West Highway
    Silver Spring, MD 20910
    Page Author: NWS Internet Services Team
Disclaimer
Information Quality
Credits
Glossary
Privacy Policy
Freedom of Information Act (FOIA)
About Us
Career Opportunities